Historyczne dane pomiarowe

Dodano dane terminowe – wersja testowa.

Dane z okresu 1951-2019

Wersja bazy: 1.34 [2019-03-16, lista zmian], aktualizacja planowana na 2019-04-15

Dane meteo z obszaru Polski uzyskane na podstawie danych udostępnionych przez Instytut Meteorologii i Gospodarki Wodnej – Państwowy Instytut Badawczy.

 

Wybierz Datę:    

       

TemperaturaWilgotnośćWiatrCiśnienieOpadyŚniegCzas trwania zjawisk
 Stacja t tx tn tng RH VA  wxwx mslp ppp RRR   cm mm wxwxwxwxwxwxwx
1961-08-14 14.1 18.3 9.3- 80.3- 7.3 1.0---- 0.9------------
1961-08-13 13.9 17.6 8.6- 75.5- 3.7 1.7---- 0.0------------
1961-08-12 15.9 20.1 13.8- 79.3- 3.7 1.0---- 0.0------------
1961-08-11 17.2 20.2 13.1- 88.0- 7.0 0.0---- 0.0------------
1961-08-10 18.6 25.1 11.3- 54.3- 6.3 1.0---- 3.1------------
1961-08-09 16.8 22.5 13.4- 77.5- 2.7 1.0---- 0.0------------
1961-08-08 16.1 21.0 9.0- 77.3- 4.7 0.7---- 1.8------------
1961-08-07 15.5 18.5 13.6- 88.3- 6.3 0.7---- 3.4------------
1961-08-06 18.5 24.2 14.0- 83.0- 5.7 1.0---- 0.4------------
1961-08-05 15.7 19.8 14.1- 81.5- 5.3 1.7---- 2.1------------
1961-08-04 13.7 15.9 9.4- 91.3- 8.0 1.3---- 7.8------------
1961-08-03 13.6 18.3 12.3- 91.8- 5.3 0.7---- 2.8------------
1961-08-02 16.3 20.1 11.7- 82.5- 7.3 1.0---- 1.6------------
1961-08-01 15.2 18.1 13.4- 90.8- 7.0 1.7---- 4.6------------
1961-07-31 14.5 15.9 13.5- 93.0- 8.0 1.0---- 41.8------------
1961-07-30 15.7 19.1 12.6- 84.0- 7.7 1.0---- 0.0------------
1961-07-29 14.5 17.8 11.0- 80.3- 6.7 1.3---- 0.0------------
1961-07-28 13.2 14.9 12.1- 86.8- 7.0 1.0---- 0.1------------
1961-07-27 14.5 19.3 12.9- 88.0- 8.0 1.0---- 5.6------------
1961-07-26 16.6 21.4 13.2- 85.3- 8.0 1.7---- 4.3------------
1961-07-25 15.7 17.7 11.5- 72.0- 7.0 3.0---- 0.2------------
1961-07-24 14.3 17.7 12.5- 78.0- 5.7 2.3---- 0.3------------
1961-07-23 14.5 16.7 13.5- 85.3- 8.0 1.3---- 5.5------------
1961-07-22 15.5 17.7 12.6- 84.8- 7.7 1.3---- 2.6------------
1961-07-21 15.8 18.9 13.9- 86.5- 7.3 2.3---- 6.1------------
1961-07-20 15.8 20.0 11.2- 84.8- 6.7 0.7---- 4.2------------
1961-07-19 15.8 20.3 12.1- 83.8- 6.7 1.0---- 4.2------------
1961-07-18 14.8 17.7 12.1- 90.8- 6.7 0.3---- 20.2------------
1961-07-17 15.7 20.3 11.5- 82.8- 6.0 0.7---- 3.5------------
1961-07-16 15.1 16.7 10.6- 86.0- 6.7 0.3---- 3.7------------
1961-07-15 15.5 20.3 11.4- 82.0- 3.7 0.7---- 2.6------------
1961-07-14 14.6 18.3 13.1- 86.0- 7.3 2.3---- 0.3------------
1961-07-13 20.4 28.4 13.4- 82.8- 5.0 1.3---- 24.8------------
1961-07-12 17.0 21.3 13.7- 83.3- 5.3 0.7---- 0.0------------
1961-07-11 14.9 18.8 9.6- 78.8- 7.0 1.3---- 1.1------------
1961-07-10 14.1 17.2 10.7- 71.3- 6.3 2.3---- 2.2------------
1961-07-09 14.6 15.9 13.9- 82.5- 7.3 0.7---- 13.4------------
1961-07-08 15.5 19.7 9.8- 83.0- 7.7 1.3---- 1.6------------
1961-07-07 13.0 16.2 10.5- 82.3- 6.3 0.3---- 0.0------------
1961-07-06 12.8 16.2 8.0- 77.5- 6.0 1.0---- 4.4------------
1961-07-05 11.5 16.4 10.6- 83.8- 7.0 3.0---- 7.9------------
1961-07-04 16.4 20.5 11.0- 73.5- 6.3 2.3---- 6.7------------
1961-07-03 21.3 32.3 11.2- 69.8- 2.0 1.0---- 0.0------------
1961-07-02 19.4 28.9 7.0- 66.0- 0.0 0.3---- 0.0------------
1961-07-01 17.0 24.1 6.4- 74.8- 0.0 0.3---- 0.0------------
1961-06-30 16.3 20.8 10.6- 73.3- 0.0 1.3---- 0.0------------
1961-06-29 15.9 19.0 13.5- 66.8- 3.7 6.3---- 0.0------------
1961-06-28 14.9 19.0 11.7- 66.0- 4.3 8.0---- 0.0------------
1961-06-27 22.1 29.3 17.1- 70.0- 4.7 3.3---- 1.5------------
1961-06-26 20.1 25.9 12.6- 63.3- 1.7 1.3---- 0.0------------
1961-06-25 20.3 24.8 12.6- 56.3- 2.3 3.7---- 0.0------------
1961-06-24 16.6 21.0 13.3- 64.8- 4.0 3.3---- 0.0------------
1961-06-23 16.3 19.8 8.9- 69.0- 3.3 2.7---- 0.0------------
1961-06-22 15.6 21.9 7.3- 58.5- 4.0 0.7---- 0.0------------
1961-06-21 13.7 18.8 10.3- 71.3- 4.0 1.0---- 0.2------------
1961-06-20 14.0 18.0 11.1- 60.8- 2.7 5.0---- 0.0------------
1961-06-19 14.8 26.2 11.6- 66.8- 3.3 6.3---- 0.0------------
1961-06-18 18.8 26.1 15.1- 74.5- 5.0 2.0---- 4.8------------
1961-06-17 17.8 23.4 10.6- 73.0- 4.7 2.7---- 0.0------------
1961-06-16 14.5 16.7 12.1- 79.3- 6.7 2.7---- 0.0------------
1180.6 ms

 

Źródłem pochodzenia danych jest Instytut Meteorologii i Gospodarki Wodnej – Państwowy Instytut Badawczy. Dane Instytutu Meteorologii i Gospodarki Wodnej – Państwowego Instytutu Badawczego zostały przetworzone.

Dane źródłowe można odnaleźć na stronie https://dane.imgw.pl